West Copake, New York
Current Conditions -  °F | °C
As of 7:54 PM on Friday 24 Oct 2014 (Local Time) from KPSF Reporting Station
Overcast Overcast  
Wind Chill: 41°   Ceiling: 2500
Heat Index: 46°   Visibility: 10mi
Dew Point: 42°   Wind: 9mph
Humidity: 86%   Direction: 340°NNW
Pressure: 29.8"   Gusts: NA
Location:  42.1°N, 73.58°W
Report Text: KPSF 242354Z AUTO 34008KT 10SM BKN025 OVC100 08/06 A2980 RMK AO2 SLP089 T00780056 10083 20072 51010
Loading
Personal Weather Stations






























Interactive Weather Map
Tropical Storm Tracking
New forecast layout! Learn more

10-Day Weather Forecast

Advertisements
Track Severe Weather on mobile